Time;durP1;ratioP1;P1;durP2;ratioP2;P2;SDS_P1;SDS_P2;PMS_P1;PMS_P2;Temp;Humidity;BMP_temperature;BMP_pressure;BME280_temperature;BME280_humidity;BME280_pressure;Samples;Min_cycle;Max_cycle;Signal;HPM_P1;HPM_P2
2023/05/12 00:02:07;;;;;;;9.63;4.32;;;;;;;10.86;100.00;100450.84;5547188;32;34139;-71
2023/05/12 00:05:10;;;;;;;6.75;4.60;;;;;;;10.76;100.00;100444.88;5548397;32;33741;-71
2023/05/12 00:08:12;;;;;;;5.70;4.43;;;;;;;10.77;100.00;100441.22;5548083;32;34608;-71
2023/05/12 00:11:15;;;;;;;11.18;4.75;;;;;;;10.81;100.00;100439.91;5547980;32;34584;-71
2023/05/12 00:14:18;;;;;;;12.82;4.60;;;;;;;10.85;100.00;100448.34;5548004;32;34019;-71
2023/05/12 00:17:21;;;;;;;7.65;4.25;;;;;;;10.82;100.00;100443.38;5547018;32;33827;-71
2023/05/12 00:20:24;;;;;;;9.27;4.40;;;;;;;10.74;100.00;100438.09;5547881;32;33887;-70
2023/05/12 00:23:26;;;;;;;7.20;4.22;;;;;;;10.81;100.00;100445.22;5547817;32;34243;-71
2023/05/12 00:26:29;;;;;;;6.03;4.10;;;;;;;10.70;100.00;100437.56;5547982;32;33834;-71
2023/05/12 00:29:33;;;;;;;5.82;4.10;;;;;;;10.65;100.00;100439.09;5547849;32;33719;-71
2023/05/12 00:32:35;;;;;;;7.10;4.18;;;;;;;10.71;100.00;100439.25;5547654;32;34654;-70
2023/05/12 00:35:38;;;;;;;6.37;4.05;;;;;;;10.69;100.00;100435.94;5547676;32;34645;-71
2023/05/12 00:38:41;;;;;;;6.78;3.87;;;;;;;10.68;100.00;100431.62;5547718;32;34480;-70
2023/05/12 00:41:43;;;;;;;8.88;4.57;;;;;;;10.59;100.00;100432.63;5547734;32;34677;-71
2023/05/12 00:44:46;;;;;;;8.60;4.43;;;;;;;10.62;100.00;100432.28;5547657;32;33967;-70
2023/05/12 00:47:50;;;;;;;7.25;4.03;;;;;;;10.56;100.00;100425.00;5547517;32;33975;-70
2023/05/12 00:50:54;;;;;;;6.85;4.30;;;;;;;10.56;100.00;100426.81;5547524;32;33868;-71
2023/05/12 00:53:58;;;;;;;6.12;4.45;;;;;;;10.67;100.00;100427.31;5547610;32;33670;-70
2023/05/12 00:57:00;;;;;;;8.02;4.55;;;;;;;10.73;100.00;100429.31;5547563;32;34010;-70
2023/05/12 01:00:06;;;;;;;6.93;4.10;;;;;;;10.73;100.00;100431.13;5547886;32;33736;-70
2023/05/12 01:03:09;;;;;;;10.48;4.25;;;;;;;10.64;100.00;100426.81;5547560;32;34016;-70
2023/05/12 01:06:19;;;;;;;9.52;4.57;;;;;;;10.60;100.00;100425.50;5547383;32;33931;-70
2023/05/12 01:09:22;;;;;;;7.60;4.30;;;;;;;10.60;100.00;100421.00;5547754;32;33811;-70
2023/05/12 01:12:26;;;;;;;7.15;4.25;;;;;;;10.52;100.00;100421.03;5547421;32;33573;-69
2023/05/12 01:15:31;;;;;;;6.07;4.05;;;;;;;10.61;100.00;100422.66;5547615;32;33907;-70
2023/05/12 01:18:36;;;;;;;7.75;4.28;;;;;;;10.63;100.00;100419.84;5547168;32;33918;-70
2023/05/12 01:21:39;;;;;;;5.32;3.85;;;;;;;10.58;100.00;100423.00;5533970;32;33813;-71
2023/05/12 01:24:56;;;;;;;4.68;4.00;;;;;;;10.58;100.00;100425.66;5547223;32;33914;-71
2023/05/12 01:28:01;;;;;;;6.80;4.18;;;;;;;10.63;100.00;100420.69;5547123;32;33725;-71
2023/05/12 01:31:06;;;;;;;7.90;4.32;;;;;;;10.73;100.00;100426.66;5549315;32;33773;-73
2023/05/12 01:34:15;;;;;;;12.43;4.70;;;;;;;10.73;100.00;100418.69;5549231;32;34496;-73
2023/05/12 01:37:18;;;;;;;12.70;4.65;;;;;;;10.64;100.00;100427.66;5549280;32;33905;-74
2023/05/12 01:40:21;;;;;;;9.63;4.87;;;;;;;10.56;100.00;100427.63;5549622;32;33968;-73
2023/05/12 01:43:24;;;;;;;5.93;4.30;;;;;;;10.62;100.00;100424.34;5548376;32;33739;-72
2023/05/12 01:46:27;;;;;;;6.65;4.60;;;;;;;10.61;100.00;100422.66;5549260;32;33890;-73
2023/05/12 01:49:31;;;;;;;6.05;3.50;;;;;;;10.56;100.00;100425.00;5549182;32;33941;-73
2023/05/12 01:52:34;;;;;;;10.02;4.37;;;;;;;10.63;100.00;100426.00;5549186;32;34032;-72
2023/05/12 01:55:37;;;;;;;8.02;4.00;;;;;;;10.59;100.00;100429.97;5549475;32;33724;-73
2023/05/12 01:58:40;;;;;;;8.00;4.22;;;;;;;10.56;100.00;100435.59;5549536;32;33758;-72
2023/05/12 02:01:43;;;;;;;6.60;4.47;;;;;;;10.55;100.00;100441.09;5549182;32;33777;-72
2023/05/12 02:04:48;;;;;;;8.20;4.28;;;;;;;10.58;100.00;100441.59;5549002;32;34150;-72
2023/05/12 02:07:50;;;;;;;8.68;4.12;;;;;;;10.71;100.00;100444.56;5549337;32;33816;-72
2023/05/12 02:11:06;;;;;;;8.43;4.40;;;;;;;10.88;100.00;100440.06;5548221;32;32701;-73
2023/05/12 02:14:09;;;;;;;7.97;4.60;;;;;;;10.88;100.00;100442.72;5549332;32;33966;-73
2023/05/12 02:17:12;;;;;;;9.38;4.68;;;;;;;10.85;100.00;100446.53;5548243;32;33784;-74
2023/05/12 02:20:15;;;;;;;13.05;5.22;;;;;;;10.87;100.00;100451.69;5549163;32;33807;-74
2023/05/12 02:23:18;;;;;;;6.25;4.18;;;;;;;10.86;100.00;100453.50;5548820;32;34045;-75
2023/05/12 02:26:21;;;;;;;7.28;4.65;;;;;;;10.81;100.00;100447.88;5548900;32;34047;-75
2023/05/12 02:29:24;;;;;;;7.15;4.18;;;;;;;10.78;100.00;100448.22;5548885;32;33690;-77
2023/05/12 02:32:28;;;;;;;14.43;5.07;;;;;;;10.68;100.00;100450.19;5549307;32;33814;-76
2023/05/12 02:35:31;;;;;;;9.23;5.10;;;;;;;10.61;100.00;100441.22;5548538;32;34632;-76
2023/05/12 02:38:33;;;;;;;14.75;5.82;;;;;;;10.75;100.00;100451.19;5548932;32;34476;-77
2023/05/12 02:41:37;;;;;;;6.05;4.50;;;;;;;10.80;100.00;100445.38;5547758;32;34575;-77
2023/05/12 02:44:40;;;;;;;9.35;4.28;;;;;;;10.74;100.00;100446.87;5548967;32;33828;-77
2023/05/12 02:47:42;;;;;;;8.32;4.28;;;;;;;10.64;100.00;100458.66;5548578;32;34739;-77
2023/05/12 02:50:45;;;;;;;12.65;4.62;;;;;;;10.51;100.00;100453.00;5548556;32;34065;-76
2023/05/12 02:53:48;;;;;;;7.72;4.70;;;;;;;10.45;100.00;100457.16;5548695;32;34101;-75
2023/05/12 02:56:52;;;;;;;5.18;4.12;;;;;;;10.46;100.00;100459.62;5548671;32;33834;-76
2023/05/12 02:59:54;;;;;;;13.05;5.30;;;;;;;10.49;100.00;100462.97;5548637;32;33593;-77
2023/05/12 03:02:57;;;;;;;8.70;4.20;;;;;;;10.43;100.00;100459.16;5529565;32;33928;-76
2023/05/12 03:06:01;;;;;;;9.20;4.15;;;;;;;10.42;100.00;100460.97;5529560;32;33960;-75
2023/05/12 03:09:03;;;;;;;12.25;5.28;;;;;;;10.38;100.00;100450.84;5529338;32;33614;-75
2023/05/12 03:12:07;;;;;;;11.93;5.32;;;;;;;10.33;100.00;100461.94;5529214;32;33957;-76
2023/05/12 03:15:10;;;;;;;13.35;4.80;;;;;;;10.30;100.00;100458.81;5529617;32;34087;-75
2023/05/12 03:18:13;;;;;;;6.53;4.50;;;;;;;10.30;100.00;100464.13;5529488;32;34291;-74
2023/05/12 03:21:16;;;;;;;6.25;4.40;;;;;;;10.33;100.00;100459.31;5529516;32;33949;-74
2023/05/12 03:24:19;;;;;;;6.47;4.43;;;;;;;10.35;100.00;100461.81;5529062;32;33951;-74
2023/05/12 03:27:21;;;;;;;7.85;4.55;;;;;;;10.43;100.00;100453.84;5537196;32;33834;-75
2023/05/12 03:30:24;;;;;;;9.55;4.60;;;;;;;10.47;100.00;100460.47;5548438;32;33749;-75
2023/05/12 03:33:27;;;;;;;6.93;4.45;;;;;;;10.33;100.00;100466.44;5548343;32;33823;-72
2023/05/12 03:36:31;;;;;;;8.20;4.45;;;;;;;10.32;100.00;100465.59;5548228;32;34054;-74
2023/05/12 03:39:33;;;;;;;8.77;4.90;;;;;;;10.37;100.00;100465.09;5548316;32;33623;-74
2023/05/12 03:42:36;;;;;;;7.57;4.30;;;;;;;10.32;100.00;100470.91;5548146;32;33905;-74
2023/05/12 03:45:38;;;;;;;8.10;4.20;;;;;;;10.34;100.00;100468.09;5548606;32;33789;-74
2023/05/12 03:48:41;;;;;;;7.62;4.50;;;;;;;10.33;100.00;100466.44;5548288;32;34431;-74
2023/05/12 03:51:44;;;;;;;10.65;4.82;;;;;;;10.39;100.00;100469.25;5547365;32;33935;-74
2023/05/12 03:54:46;;;;;;;10.05;5.03;;;;;;;10.39;100.00;100476.38;5548279;32;33577;-74
2023/05/12 03:57:49;;;;;;;8.95;4.97;;;;;;;10.40;100.00;100470.09;5548293;32;33607;-75
2023/05/12 04:00:55;;;;;;;6.53;4.72;;;;;;;10.41;100.00;100474.37;5548146;32;33774;-74
2023/05/12 04:03:58;;;;;;;10.05;5.00;;;;;;;10.37;100.00;100473.88;5548014;32;34626;-73
2023/05/12 04:07:01;;;;;;;7.95;4.47;;;;;;;10.33;100.00;100467.25;5548314;32;34797;-74
2023/05/12 04:10:04;;;;;;;12.68;4.50;;;;;;;10.38;100.00;100477.37;5547957;32;33870;-74
2023/05/12 04:13:07;;;;;;;6.85;4.75;;;;;;;10.45;100.00;100475.75;5547943;32;33950;-74
2023/05/12 04:16:10;;;;;;;5.53;4.65;;;;;;;10.50;100.00;100486.69;5547964;32;33603;-75
2023/05/12 04:19:13;;;;;;;11.20;4.35;;;;;;;10.52;100.00;100492.62;5547932;32;34428;-74
2023/05/12 04:22:15;;;;;;;10.93;4.68;;;;;;;10.46;100.00;100488.81;5548153;32;33753;-74
2023/05/12 04:25:18;;;;;;;8.73;4.40;;;;;;;10.44;100.00;100495.28;5547752;32;33896;-76
2023/05/12 04:28:21;;;;;;;8.88;4.65;;;;;;;10.46;100.00;100491.47;5547973;32;34336;-75
2023/05/12 04:31:23;;;;;;;14.57;4.75;;;;;;;10.44;100.00;100485.50;5548184;32;35217;-75
2023/05/12 04:34:27;;;;;;;5.85;4.18;;;;;;;10.49;100.00;100490.31;5547711;32;33896;-75
2023/05/12 04:37:30;;;;;;;5.80;4.32;;;;;;;10.56;100.00;100493.97;5547582;32;34973;-75
2023/05/12 04:40:32;;;;;;;5.32;3.85;;;;;;;10.63;100.00;100491.50;5547570;32;33983;-74
2023/05/12 04:43:37;;;;;;;6.68;4.47;;;;;;;10.62;100.00;100485.34;5547648;32;34568;-73
2023/05/12 04:46:43;;;;;;;5.15;4.25;;;;;;;10.81;100.00;100492.16;5548852;32;34596;-76
2023/05/12 04:49:45;;;;;;;9.88;4.12;;;;;;;10.77;100.00;100496.12;5549820;32;33806;-75
2023/05/12 04:52:49;;;;;;;8.43;4.57;;;;;;;10.82;100.00;100488.50;5547573;32;35335;-75
2023/05/12 04:55:51;;;;;;;9.68;5.55;;;;;;;10.75;100.00;100492.81;5548038;32;33536;-75
2023/05/12 04:58:54;;;;;;;7.60;4.43;;;;;;;10.77;100.00;100494.31;5547413;32;34452;-76
2023/05/12 05:01:57;;;;;;;9.93;4.40;;;;;;;10.74;100.00;100491.16;5547803;32;34254;-75
2023/05/12 05:05:00;;;;;;;5.10;4.32;;;;;;;10.81;100.00;100492.97;5547109;32;33992;-74
2023/05/12 05:08:04;;;;;;;7.07;4.40;;;;;;;10.95;100.00;100491.47;5547045;32;34121;-75
2023/05/12 05:11:07;;;;;;;8.00;4.68;;;;;;;10.93;100.00;100490.00;5547426;32;34066;-75
2023/05/12 05:14:10;;;;;;;7.62;4.50;;;;;;;10.93;100.00;100498.78;5547531;32;34802;-74
2023/05/12 05:17:13;;;;;;;7.28;4.53;;;;;;;10.89;100.00;100497.47;5547138;32;34576;-74
2023/05/12 05:20:16;;;;;;;6.05;4.00;;;;;;;11.01;100.00;100501.44;5547163;32;33875;-74
2023/05/12 05:23:19;;;;;;;15.65;5.32;;;;;;;11.07;100.00;100497.28;5546132;32;34530;-74
2023/05/12 05:26:22;;;;;;;7.65;4.20;;;;;;;11.11;100.00;100496.78;5546688;32;33720;-74
2023/05/12 05:29:25;;;;;;;7.87;4.25;;;;;;;11.21;100.00;100497.41;5546930;32;34647;-75
2023/05/12 05:32:28;;;;;;;10.57;5.22;;;;;;;11.20;100.00;100501.06;5546742;32;33935;-76
2023/05/12 05:35:31;;;;;;;7.40;4.55;;;;;;;11.06;100.00;100504.41;5546934;32;34420;-75
2023/05/12 05:38:33;;;;;;;10.82;4.60;;;;;;;11.14;100.00;100503.56;5546534;32;34835;-74
2023/05/12 05:41:37;;;;;;;5.75;4.25;;;;;;;11.13;100.00;100499.25;5542435;32;34353;-76
2023/05/12 05:44:40;;;;;;;6.45;4.40;;;;;;;11.14;100.00;100507.03;5545166;32;33152;-74
2023/05/12 05:47:45;;;;;;;5.70;4.00;;;;;;;11.33;100.00;100500.53;5545828;32;33862;-74
2023/05/12 05:50:50;;;;;;;7.05;4.28;;;;;;;11.41;100.00;100503.19;5541810;32;33947;-75
2023/05/12 05:53:54;;;;;;;12.77;4.80;;;;;;;11.41;100.00;100511.16;5541104;32;33246;-75
2023/05/12 05:56:59;;;;;;;5.97;3.97;;;;;;;11.34;100.00;100510.16;5546517;32;34846;-76
2023/05/12 06:00:04;;;;;;;5.72;3.92;;;;;;;11.35;100.00;100509.16;5545701;32;34974;-74
2023/05/12 06:03:14;;;;;;;7.45;4.32;;;;;;;11.18;100.00;100507.56;5538943;32;34640;-75
2023/05/12 06:06:17;;;;;;;4.40;3.85;;;;;;;11.24;100.00;100517.47;5531391;32;34453;-75
2023/05/12 06:09:20;;;;;;;7.97;4.22;;;;;;;11.37;100.00;100527.59;5537446;32;34247;-75
2023/05/12 06:12:23;;;;;;;5.87;4.03;;;;;;;11.39;100.00;100517.63;5557896;32;35481;-75
2023/05/12 06:15:26;;;;;;;7.07;5.03;;;;;;;11.45;100.00;100519.59;5547764;32;34419;-74
2023/05/12 06:18:29;;;;;;;7.37;4.97;;;;;;;11.53;100.00;100508.94;5535898;32;33683;-75
2023/05/12 06:21:32;;;;;;;12.55;4.72;;;;;;;11.65;100.00;100520.88;5545562;32;33826;-75
2023/05/12 06:24:35;;;;;;;8.32;4.60;;;;;;;11.71;100.00;100513.03;5546615;32;33861;-76
2023/05/12 06:27:37;;;;;;;6.28;4.85;;;;;;;11.77;100.00;100515.03;5543568;32;34067;-75
2023/05/12 06:30:40;;;;;;;8.90;4.53;;;;;;;11.70;100.00;100513.22;5548678;32;33620;-75
2023/05/12 06:33:43;;;;;;;7.95;4.28;;;;;;;11.73;100.00;100513.72;5548434;32;33927;-76
2023/05/12 06:36:46;;;;;;;7.50;4.35;;;;;;;11.58;100.00;100512.75;5548496;32;34419;-75
2023/05/12 06:39:49;;;;;;;12.48;4.65;;;;;;;11.73;100.00;100511.06;5548400;32;34782;-76
2023/05/12 06:42:52;;;;;;;6.65;4.68;;;;;;;11.73;100.00;100519.06;5548292;32;35137;-75
2023/05/12 06:45:55;;;;;;;6.60;4.40;;;;;;;11.72;100.00;100521.84;5542841;32;33910;-77
2023/05/12 06:48:59;;;;;;;6.82;4.43;;;;;;;11.87;100.00;100514.00;5547380;32;34344;-74
2023/05/12 06:52:02;;;;;;;6.90;4.20;;;;;;;11.84;100.00;100514.38;5546343;32;34438;-76
2023/05/12 06:55:07;;;;;;;6.37;4.60;;;;;;;11.88;100.00;100513.00;5542216;32;34713;-77
2023/05/12 06:58:09;;;;;;;9.15;4.50;;;;;;;11.88;100.00;100510.34;5534102;32;34449;-75
2023/05/12 07:01:12;;;;;;;6.65;4.70;;;;;;;11.93;100.00;100515.97;5529134;32;33866;-74
2023/05/12 07:04:15;;;;;;;5.72;4.53;;;;;;;11.79;100.00;100512.22;5528802;32;34368;-74
2023/05/12 07:07:18;;;;;;;7.40;4.60;;;;;;;11.71;100.00;100525.53;5531780;32;34004;-75
2023/05/12 07:10:20;;;;;;;6.50;4.32;;;;;;;11.75;100.00;100516.22;5528751;32;34039;-75
2023/05/12 07:13:23;;;;;;;11.35;4.65;;;;;;;11.93;100.00;100521.28;5533489;32;35161;-74
2023/05/12 07:16:26;;;;;;;5.82;4.45;;;;;;;11.95;100.00;100520.12;5540514;32;33902;-73
2023/05/12 07:19:29;;;;;;;9.27;4.45;;;;;;;12.01;100.00;100516.75;5547778;32;33975;-73
2023/05/12 07:22:32;;;;;;;9.10;4.62;;;;;;;12.03;100.00;100511.28;5547317;32;33827;-74
2023/05/12 07:25:34;;;;;;;6.40;4.70;;;;;;;12.19;100.00;100512.03;5547929;32;33926;-74
2023/05/12 07:28:37;;;;;;;7.12;4.18;;;;;;;12.30;100.00;100507.28;5547395;32;33883;-73
2023/05/12 07:31:40;;;;;;;5.12;4.28;;;;;;;12.36;100.00;100518.06;5548340;32;34191;-71
2023/05/12 07:34:42;;;;;;;7.03;4.53;;;;;;;12.41;100.00;100518.37;5538540;32;33587;-72
2023/05/12 07:37:45;;;;;;;7.18;4.00;;;;;;;12.48;100.00;100510.53;5547137;32;34561;-70
2023/05/12 07:40:48;;;;;;;6.53;3.67;;;;;;;12.45;100.00;100519.66;5547938;32;33911;-72
2023/05/12 07:43:51;;;;;;;4.97;3.70;;;;;;;12.28;100.00;100517.31;5546498;32;34220;-70
2023/05/12 07:46:53;;;;;;;5.97;3.40;;;;;;;12.31;100.00;100515.09;5530319;32;34040;-73
2023/05/12 07:49:56;;;;;;;4.87;3.22;;;;;;;12.33;100.00;100512.28;5520629;32;259419;-71
2023/05/12 07:52:59;;;;;;;4.60;3.60;;;;;;;12.17;100.00;100529.16;5528631;32;33685;-72
2023/05/12 07:56:02;;;;;;;6.43;3.72;;;;;;;12.13;100.00;100526.03;5528484;32;33739;-72
2023/05/12 07:59:05;;;;;;;7.82;3.70;;;;;;;11.97;100.00;100526.09;5528796;32;33599;-72
2023/05/12 08:02:09;;;;;;;8.15;4.40;;;;;;;12.00;100.00;100527.59;5528785;32;34059;-71
2023/05/12 08:05:12;;;;;;;5.45;3.65;;;;;;;12.05;100.00;100526.03;5528587;32;34762;-73
2023/05/12 08:08:15;;;;;;;7.22;4.32;;;;;;;11.98;100.00;100526.94;5528683;32;34590;-72
2023/05/12 08:11:18;;;;;;;6.47;4.20;;;;;;;11.93;100.00;100531.94;5528443;32;34771;-72
2023/05/12 08:14:21;;;;;;;7.55;4.10;;;;;;;12.14;100.00;100533.00;5529011;32;33826;-73
2023/05/12 08:17:24;;;;;;;6.15;3.97;;;;;;;12.37;100.00;100533.03;5528622;32;33783;-69
2023/05/12 08:20:31;;;;;;;4.95;3.70;;;;;;;12.30;100.00;100540.06;5528371;32;33879;-70
2023/05/12 08:23:33;;;;;;;7.25;3.80;;;;;;;12.36;100.00;100541.19;5528123;32;33824;-69
2023/05/12 08:26:36;;;;;;;5.93;3.58;;;;;;;12.42;100.00;100535.16;5537121;32;34403;-69
2023/05/12 08:29:39;;;;;;;8.20;3.95;;;;;;;12.65;100.00;100533.34;5547519;32;33745;-69
2023/05/12 08:32:41;;;;;;;8.30;4.00;;;;;;;12.78;100.00;100541.56;5547341;32;33828;-69
2023/05/12 08:35:44;;;;;;;4.82;3.78;;;;;;;13.07;100.00;100540.81;5547668;32;33647;-68
2023/05/12 08:38:47;;;;;;;6.55;4.18;;;;;;;13.27;100.00;100538.50;5546960;32;33684;-68
2023/05/12 08:41:58;;;;;;;4.78;3.95;;;;;;;13.61;100.00;100536.16;5546221;32;34002;-66
2023/05/12 08:45:02;;;;;;;4.75;3.60;;;;;;;13.69;100.00;100543.25;5547471;32;34500;-68
2023/05/12 08:48:10;;;;;;;8.63;3.92;;;;;;;13.82;100.00;100541.59;5547528;32;34441;-68
2023/05/12 08:51:13;;;;;;;6.25;4.00;;;;;;;13.76;100.00;100547.66;5546176;32;34894;-69
2023/05/12 08:54:18;;;;;;;4.97;3.80;;;;;;;13.53;100.00;100549.59;5547337;32;34868;-69
2023/05/12 08:57:20;;;;;;;6.40;4.25;;;;;;;13.61;100.00;100554.00;5547283;32;33901;-67
2023/05/12 09:00:27;;;;;;;8.15;4.40;;;;;;;13.69;100.00;100554.75;5547296;32;34884;-68
2023/05/12 09:03:30;;;;;;;6.90;4.05;;;;;;;13.80;100.00;100558.78;5547133;32;33699;-70
2023/05/12 09:06:34;;;;;;;6.55;3.83;;;;;;;13.78;100.00;100558.16;5547257;32;33978;-67
2023/05/12 09:09:40;;;;;;;7.37;4.35;;;;;;;13.55;100.00;100565.41;5546763;32;35363;-67
2023/05/12 09:12:51;;;;;;;6.05;3.37;;;;;;;13.36;100.00;100572.09;5544791;32;33908;-68
2023/05/12 09:15:55;;;;;;;6.28;4.30;;;;;;;13.10;100.00;100563.63;5528079;32;33803;-67
2023/05/12 09:18:59;;;;;;;6.50;4.03;;;;;;;12.85;100.00;100574.47;5527479;32;34035;-68
2023/05/12 09:22:02;;;;;;;5.75;3.78;;;;;;;12.65;100.00;100573.28;5527505;32;33589;-67
2023/05/12 09:25:19;;;;;;;7.03;3.97;;;;;;;12.63;100.00;100578.75;5527359;32;35370;-67
2023/05/12 09:28:21;;;;;;;8.70;4.40;;;;;;;12.45;100.00;100569.41;5527759;32;34305;-66
2023/05/12 09:31:27;;;;;;;8.98;4.50;;;;;;;12.36;100.00;100579.25;5527546;32;34718;-68
2023/05/12 09:34:39;;;;;;;9.38;4.82;;;;;;;12.29;100.00;100591.62;5527733;32;34109;-67
2023/05/12 09:37:45;;;;;;;8.43;4.72;;;;;;;12.36;100.00;100595.22;5527320;32;34493;-69
2023/05/12 09:40:48;;;;;;;7.93;5.07;;;;;;;12.14;100.00;100602.16;5526625;32;33884;-71
2023/05/12 09:43:54;;;;;;;8.95;5.25;;;;;;;11.89;100.00;100602.41;5533716;32;33929;-72
2023/05/12 09:47:05;;;;;;;8.52;5.45;;;;;;;11.76;100.00;100605.59;5532014;32;33676;-69
2023/05/12 09:50:09;;;;;;;10.57;5.90;;;;;;;11.60;100.00;100602.94;5533493;32;33620;-72
2023/05/12 09:53:13;;;;;;;7.47;5.45;;;;;;;11.46;100.00;100607.13;5533423;32;33889;-73
2023/05/12 09:56:17;;;;;;;14.00;6.30;;;;;;;11.39;100.00;100615.91;5535216;32;34882;-71
2023/05/12 09:59:25;;;;;;;10.77;6.82;;;;;;;11.46;100.00;100606.28;5534777;32;34601;-72
2023/05/12 10:02:31;;;;;;;19.65;7.50;;;;;;;11.37;100.00;100615.25;5530671;32;33156;-73
2023/05/12 10:05:38;;;;;;;10.25;6.15;;;;;;;11.33;100.00;100609.44;5528770;32;35132;-76
2023/05/12 10:08:56;;;;;;;8.07;6.18;;;;;;;11.37;100.00;100602.81;5516414;32;33669;-71
2023/05/12 10:12:01;;;;;;;26.65;7.18;;;;;;;11.31;100.00;100606.97;5529691;32;34688;-75
2023/05/12 10:15:06;;;;;;;10.38;6.40;;;;;;;11.11;100.00;100616.25;5529513;32;34589;-75
2023/05/12 10:18:09;;;;;;;12.60;7.15;;;;;;;11.09;100.00;100612.91;5537333;32;33869;-75
2023/05/12 10:21:13;;;;;;;12.73;7.30;;;;;;;11.12;100.00;100614.44;5528762;32;32286;-79
2023/05/12 10:24:16;;;;;;;15.93;7.03;;;;;;;11.16;100.00;100615.75;5529736;32;34672;-76
2023/05/12 10:27:21;;;;;;;17.30;8.50;;;;;;;11.13;100.00;100618.75;5529927;32;33912;-79
2023/05/12 10:30:24;;;;;;;23.30;8.70;;;;;;;11.07;100.00;100628.19;5529974;32;34395;-79
2023/05/12 10:33:26;;;;;;;12.65;8.02;;;;;;;11.18;100.00;100624.41;5540352;32;34136;-80
2023/05/12 10:36:29;;;;;;;15.88;7.62;;;;;;;11.39;100.00;100621.22;5545050;32;33757;-78
2023/05/12 10:39:33;;;;;;;16.35;7.60;;;;;;;11.34;100.00;100621.72;5530390;32;34667;-79
2023/05/12 10:42:41;;;;;;;12.60;8.45;;;;;;;11.15;100.00;100624.72;5529670;32;33737;-76
2023/05/12 10:45:44;;;;;;;15.18;8.63;;;;;;;11.27;100.00;100624.22;5531194;32;33845;-75
2023/05/12 10:48:57;;;;;;;14.00;8.75;;;;;;;11.26;100.00;100613.75;5529316;32;33886;-73
2023/05/12 10:52:00;;;;;;;11.15;8.40;;;;;;;10.95;100.00;100610.91;5529088;32;34511;-74
2023/05/12 10:55:04;;;;;;;13.38;8.15;;;;;;;10.73;100.00;100606.25;5546092;32;35002;-78
2023/05/12 10:58:11;;;;;;;14.25;7.90;;;;;;;10.48;100.00;100618.62;5545910;32;33767;-72
2023/05/12 11:01:23;;;;;;;12.68;8.18;;;;;;;10.40;100.00;100614.13;5548292;32;33910;-75
2023/05/12 11:04:51;;;;;;;12.63;9.40;;;;;;;10.27;100.00;100615.56;5529092;32;33930;-77
2023/05/12 11:07:55;;;;;;;17.37;10.00;;;;;;;10.43;100.00;100620.94;5529221;32;34618;-75
2023/05/12 11:10:58;;;;;;;13.98;10.07;;;;;;;10.58;100.00;100616.66;5530837;32;33935;-77
2023/05/12 11:14:01;;;;;;;12.73;8.02;;;;;;;10.89;100.00;100617.72;5531240;32;33835;-77
2023/05/12 11:17:04;;;;;;;15.30;8.68;;;;;;;10.90;100.00;100618.53;5530458;32;34131;-75
2023/05/12 11:20:10;;;;;;;10.98;8.48;;;;;;;11.25;100.00;100631.53;5528053;32;34008;-77
2023/05/12 11:23:24;;;;;;;14.40;8.00;;;;;;;11.30;100.00;100623.87;5529128;32;33872;-77
2023/05/12 11:26:28;;;;;;;17.05;9.07;;;;;;;11.22;100.00;100639.00;5528731;32;33790;-77
2023/05/12 11:29:30;;;;;;;10.98;8.13;;;;;;;11.26;100.00;100632.34;5528818;32;33789;-78
2023/05/12 11:32:33;;;;;;;10.18;8.18;;;;;;;11.30;100.00;100620.41;5528361;32;33660;-74
2023/05/12 11:35:36;;;;;;;13.45;7.53;;;;;;;11.06;100.00;100626.53;5528973;32;34097;-73
2023/05/12 11:38:39;;;;;;;10.13;8.15;;;;;;;10.98;100.00;100621.22;5528930;32;33669;-75
2023/05/12 11:41:42;;;;;;;14.73;8.80;;;;;;;10.94;100.00;100621.72;5528748;32;33770;-77
2023/05/12 11:44:47;;;;;;;9.63;7.07;;;;;;;10.97;100.00;100613.41;5528584;32;34320;-78
2023/05/12 11:47:50;;;;;;;10.75;8.00;;;;;;;11.03;100.00;100610.13;5528712;32;33854;-78
2023/05/12 11:50:53;;;;;;;10.73;7.85;;;;;;;11.00;100.00;100608.59;5528481;32;33628;-77
2023/05/12 11:53:55;;;;;;;11.82;7.97;;;;;;;11.04;100.00;100609.09;5528693;32;33554;-77
2023/05/12 11:57:00;;;;;;;8.73;6.93;;;;;;;10.94;100.00;100613.75;5529155;32;33988;-76
2023/05/12 12:00:08;;;;;;;7.80;7.00;;;;;;;10.97;100.00;100616.06;5528525;32;33614;-74
2023/05/12 12:03:14;;;;;;;11.12;7.62;;;;;;;10.99;100.00;100619.41;5528538;32;33759;-74
2023/05/12 12:06:20;;;;;;;11.77;7.30;;;;;;;10.91;100.00;100614.91;5528468;32;33957;-74
2023/05/12 12:09:31;;;;;;;11.68;7.43;;;;;;;10.87;100.00;100617.06;5530074;32;33628;-74
2023/05/12 12:12:33;;;;;;;;;;;;;;;11.04;100.00;100620.53;5528088;32;34288;-75
2023/05/12 12:15:36;;;;;;;9.65;6.35;;;;;;;11.24;100.00;100618.41;5535488;32;33913;-75
2023/05/12 12:18:39;;;;;;;11.18;7.22;;;;;;;11.29;100.00;100629.34;5547893;32;34927;-74
2023/05/12 12:21:42;;;;;;;10.23;6.75;;;;;;;11.26;100.00;100622.56;5547041;32;33663;-74
2023/05/12 12:24:44;;;;;;;8.43;7.12;;;;;;;11.10;100.00;100629.69;5543797;32;34350;-73
2023/05/12 12:27:47;;;;;;;9.48;6.93;;;;;;;11.18;100.00;100630.50;5547712;32;34427;-74
2023/05/12 12:30:50;;;;;;;9.55;6.35;;;;;;;11.22;100.00;100628.38;5548190;32;32589;-72
2023/05/12 12:33:53;;;;;;;9.32;6.30;;;;;;;11.25;100.00;100636.00;5545831;32;34359;-72
2023/05/12 12:36:56;;;;;;;10.30;6.53;;;;;;;11.24;100.00;100637.00;5546653;32;34857;-70
2023/05/12 12:40:06;;;;;;;9.38;6.00;;;;;;;11.25;100.00;100631.53;5547981;32;34515;-73
2023/05/12 12:43:09;;;;;;;7.18;5.97;;;;;;;11.09;100.00;100641.28;5546832;32;33941;-73
2023/05/12 12:46:12;;;;;;;11.85;6.62;;;;;;;11.03;100.00;100639.31;5547941;32;33889;-71
2023/05/12 12:49:14;;;;;;;9.68;6.40;;;;;;;11.00;100.00;100629.00;5547531;32;34645;-72
2023/05/12 12:52:17;;;;;;;10.02;6.90;;;;;;;10.92;100.00;100631.66;5547185;32;33671;-73
2023/05/12 12:55:20;;;;;;;7.97;6.03;;;;;;;11.04;100.00;100636.47;5547575;32;34121;-73
2023/05/12 12:58:23;;;;;;;10.00;7.18;;;;;;;10.99;100.00;100632.69;5546709;32;33831;-73
2023/05/12 13:01:27;;;;;;;9.48;7.50;;;;;;;11.07;100.00;100627.37;5546750;32;34399;-72
2023/05/12 13:04:30;;;;;;;10.00;7.12;;;;;;;11.08;100.00;100627.22;5540101;32;33685;-72
2023/05/12 13:07:33;;;;;;;7.62;5.97;;;;;;;11.11;100.00;100624.22;5540359;32;33829;-73
2023/05/12 13:10:36;;;;;;;7.40;6.00;;;;;;;10.99;100.00;100624.72;5532165;32;33934;-74
2023/05/12 13:13:39;;;;;;;14.75;6.10;;;;;;;10.80;100.00;100625.81;5534568;32;33751;-72
2023/05/12 13:16:43;;;;;;;7.80;5.87;;;;;;;10.92;100.00;100624.53;5533820;32;34520;-71
2023/05/12 13:19:45;;;;;;;7.97;5.18;;;;;;;11.01;100.00;100623.53;5535917;32;34249;-72
2023/05/12 13:22:48;;;;;;;9.05;6.87;;;;;;;10.88;100.00;100618.72;5530549;32;35000;-73
2023/05/12 13:25:51;;;;;;;7.18;5.05;;;;;;;10.87;100.00;100617.06;5536716;32;34398;-70
2023/05/12 13:28:54;;;;;;;6.25;4.85;;;;;;;10.81;100.00;100619.53;5546861;32;34664;-72
2023/05/12 13:31:57;;;;;;;7.50;5.37;;;;;;;10.79;100.00;100624.19;5546285;32;34908;-73
2023/05/12 13:35:00;;;;;;;9.30;4.82;;;;;;;10.78;100.00;100622.53;5546338;32;33900;-72
2023/05/12 13:38:03;;;;;;;7.53;5.20;;;;;;;10.80;100.00;100620.50;5545895;32;33688;-72
2023/05/12 13:41:06;;;;;;;8.07;5.35;;;;;;;10.87;100.00;100621.53;5539611;32;33874;-69
2023/05/12 13:44:09;;;;;;;6.05;4.78;;;;;;;10.83;100.00;100629.00;5543211;32;34549;-73
2023/05/12 13:47:11;;;;;;;7.53;5.70;;;;;;;11.01;100.00;100623.53;5544856;32;34146;-74
2023/05/12 13:50:14;;;;;;;7.82;5.55;;;;;;;10.97;100.00;100629.34;5546125;32;34539;-72
2023/05/12 13:53:17;;;;;;;7.45;5.30;;;;;;;10.94;100.00;100630.50;5546429;32;33340;-72
2023/05/12 13:56:19;;;;;;;7.47;5.40;;;;;;;10.89;100.00;100630.19;5541600;32;34483;-71
2023/05/12 13:59:22;;;;;;;9.05;5.70;;;;;;;10.88;100.00;100631.16;5531712;32;34551;-73
2023/05/12 14:02:25;;;;;;;8.18;5.40;;;;;;;10.80;100.00;100628.47;5526867;32;34919;-74